ADDS METAR Data INFO
IDs: Format: Raw Decoded Include TAF

Data at: 0404 UTC 11 Dec 2017

KOSC 110355Z AUTO 31008KT 10SM SCT029 M08/M14 A2998 RMK AO2 T10851142
KOSC 110336Z AUTO 33011G21KT 10SM BKN031 M08/M14 A2998 RMK AO2 T10801141
KOSC 110315Z AUTO 33012G18KT 10SM OVC031 M07/M13 A2998 RMK AO2 T10741133
KOSC 110255Z AUTO 32012G16KT 10SM OVC031 M06/M12 A2997 RMK AO2 T10651120
KOSC 110236Z AUTO 33013KT 10SM SCT027 OVC031 M06/M11 A2996 RMK AO2 T10601112
KOSC 110215Z AUTO 33013G17KT 10SM SCT025 OVC038 M06/M11 A2995 RMK AO2 T10601106
KOSC 110155Z AUTO 32012KT 10SM BKN025 OVC036 M06/M10 A2994 RMK AO2 T10561102
KOSC 110135Z AUTO 33012KT 10SM OVC025 M06/M10 A2993 RMK AO2 T10561102
KOSC 110115Z AUTO 35011G14KT 10SM BKN025 BKN030 OVC046 M05/M10 A2993 RMK AO2 T10501097
KOSC 110055Z AUTO 34008KT 10SM SCT023 BKN044 OVC050 M05/M09 A2992 RMK AO2 T10461091
KOSC 110035Z AUTO 33010KT 10SM BKN021 OVC028 M04/M08 A2991 RMK AO2 T10451083
KOSC 110015Z AUTO 34008KT 10SM SCT021 BKN027 OVC033 M04/M08 A2990 RMK AO2 T10431080
KOSC 102355Z AUTO 35006KT 10SM -SN SCT015 SCT023 OVC031 M04/M07 A2989 RMK AO2 T10401073 11018 21040
KOSC 102335Z AUTO 35009KT 10SM SCT017 SCT026 OVC031 M04/M07 A2988 RMK AO2 T10391072
KOSC 102315Z AUTO 36007KT 10SM SCT011 BKN016 OVC027 M04/M07 A2987 RMK AO2 T10361069
KOSC 102255Z AUTO 32007KT 7SM -SN BKN016 BKN024 OVC036 M03/M06 A2985 RMK AO2 T10311057
KOSC 102235Z AUTO 30005KT 3SM -SN SCT012 BKN026 OVC036 M03/M05 A2985 RMK AO2 T10321055
KOSC 102215Z AUTO 32009KT 4SM -SN SCT014 BKN021 OVC034 M02/M06 A2984 RMK AO2 T10251064
KOSC 102155Z AUTO 25008KT 10SM -SN SCT025 SCT031 OVC037 M02/M07 A2982 RMK AO2 T10251071
KOSC 102135Z AUTO 26009KT 10SM -SN BKN025 BKN034 OVC055 M02/M07 A2982 RMK AO2 T10231072
KOSC 102115Z AUTO 24009G14KT 10SM BKN025 OVC032 M02/M07 A2981 RMK AO2 T10211072
KOSC 102055Z AUTO 24009KT 10SM OVC025 M02/M07 A2980 RMK AO2 T10211072
KOSC 102035Z AUTO 24009KT 10SM BKN029 OVC060 M02/M07 A2979 RMK AO2 T10201074
KOSC 102015Z AUTO 24009G14KT 10SM BKN029 OVC060 M02/M07 A2979 RMK AO2 T10201075
KOSC 101955Z AUTO 25010KT 10SM BKN031 OVC060 M02/M07 A2979 RMK AO2 T10201075
KOSC 101935Z AUTO 25013KT 10SM OVC029 M02/M07 A2978 RMK AO2 T10201075
KOSC 101915Z AUTO 25011KT 10SM OVC027 M02/M08 A2978 RMK AO2 T10201076
KOSC 101855Z AUTO 25012KT 10SM SCT024 OVC029 M02/M07 A2978 RMK AO2 T10211075
KOSC 101835Z AUTO 25012KT 10SM BKN022 BKN060 OVC080 M02/M08 A2978 RMK AO2 T10221076
KOSC 101815Z AUTO 25012KT 10SM BKN020 OVC080 M03/M08 A2978 RMK AO2 T10261078
KOSC 101755Z AUTO 24013G17KT 10SM SCT020 OVC080 M03/M08 A2978 RMK AO2 T10281079 11028 21055
KOSC 101735Z AUTO 23012G19KT 10SM BKN020 OVC080 M03/M08 A2978 RMK AO2 T10311079
KOSC 101715Z AUTO 25012G16KT 10SM OVC020 M03/M08 A2979 RMK AO2 T10351082
KOSC 101655Z AUTO 24012KT 10SM OVC020 M04/M08 A2979 RMK AO2 T10361083
KOSC 101635Z AUTO 25014G20KT 10SM OVC020 M04/M09 A2980 RMK AO2 T10391087
KOSC 101615Z AUTO 25013G18KT 10SM OVC020 M04/M09 A2981 RMK AO2 T10411089
KOSC 101555Z AUTO 26015G19KT 10SM OVC022 M04/M09 A2982 RMK AO2 T10421092
KOSC 101535Z AUTO 25012G17KT 10SM OVC029 M04/M09 A2982 RMK AO2 T10431095
KOSC 101515Z AUTO 25011KT 10SM BKN031 OVC090 M04/M10 A2982 RMK AO2 T10451097
KOSC 101455Z AUTO 25012KT 10SM SCT033 OVC090 M05/M10 A2982 RMK AO2 T10461098
KOSC 101435Z AUTO 25012KT 10SM OVC090 M05/M10 A2982 RMK AO2 T10481098
KOSC 101415Z AUTO 25011KT 10SM OVC100 M05/M10 A2982 RMK AO2 T10501097
KOSC 101355Z AUTO 24010KT 10SM OVC100 M05/M10 A2982 RMK AO2 T10511096
KOSC 101335Z AUTO 24010G15KT 10SM OVC090 M05/M09 A2981 RMK AO2 T10521095
KOSC 101315Z AUTO 23010KT 10SM SCT026 OVC090 M05/M09 A2981 RMK AO2 T10531092
KOSC 101255Z AUTO 23009KT 10SM SCT026 OVC090 M05/M09 A2982 RMK AO2 T10531090
KOSC 101235Z AUTO 23008KT 10SM SCT048 SCT065 OVC090 M05/M09 A2982 RMK AO2 T10551090
KOSC 101215Z AUTO 23008KT 10SM SCT029 BKN048 OVC070 M05/M09 A2982 RMK AO2 T10551089
KOSC 101155Z AUTO 23007KT 7SM -SN SCT033 BKN065 OVC070 M05/M09 A2982 RMK AO2 T10551090 11054 21094
KOSC 101135Z AUTO 23007KT 10SM SCT031 BKN050 OVC075 M05/M09 A2982 RMK AO2 T10551090
KOSC 101115Z AUTO 22005KT 10SM BKN031 BKN043 OVC050 M06/M09 A2982 RMK AO2 T10561091
KOSC 101055Z AUTO 23007KT 10SM OVC031 M06/M09 A2982 RMK AO2 T10571092
KOSC 101035Z AUTO 23007KT 10SM BKN031 BKN050 OVC060 M06/M09 A2982 RMK AO2 T10591095
KOSC 101015Z AUTO 24007KT 10SM SCT034 BKN060 OVC080 M06/M10 A2983 RMK AO2 T10631098
KOSC 100955Z AUTO 24006KT 10SM SCT034 BKN065 OVC080 M06/M10 A2984 RMK AO2 T10651100
KOSC 100935Z AUTO 23006KT 10SM BKN032 OVC090 M07/M10 A2983 RMK AO2 T10661104
KOSC 100915Z AUTO 24005KT 10SM SCT034 SCT080 BKN100 M07/M11 A2984 RMK AO2 T10691108
KOSC 100855Z AUTO 23004KT 10SM SCT090 BKN110 M07/M11 A2985 RMK AO2 T10701110
KOSC 100835Z AUTO 23004KT 10SM BKN090 OVC110 M07/M11 A2985 RMK AO2 T10701110
KOSC 100815Z AUTO 21003KT 10SM SCT039 OVC100 M07/M11 A2985 RMK AO2 T10721110
KOSC 100755Z AUTO 24003KT 10SM BKN041 OVC100 M07/M11 A2985 RMK AO2 T10751113
KOSC 100735Z AUTO 00000KT 10SM BKN041 OVC100 M08/M11 A2986 RMK AO2 T10761115
KOSC 100715Z AUTO 27003KT 10SM BKN039 BKN120 M08/M12 A2986 RMK AO2 T10851121
KOSC 100655Z AUTO 26004KT 10SM SCT110 M09/M13 A2986 RMK AO2 T10891129
KOSC 100635Z AUTO 27005KT 10SM SCT110 M09/M13 A2987 RMK AO2 T10901130
KOSC 100615Z AUTO 27004KT 10SM SCT110 M08/M13 A2987 RMK AO2 T10811127
KOSC 100555Z AUTO 32006KT 10SM SCT035 M07/M12 A2987 RMK AO2 T10741123 11036 21086
KOSC 100535Z AUTO 31006KT 10SM SCT028 OVC035 M06/M12 A2988 RMK AO2 T10651116
KOSC 100515Z AUTO 32007G15KT 10SM OVC026 M06/M11 A2988 RMK AO2 T10611111
KOSC 100455Z AUTO 31009KT 10SM -SN OVC026 M06/M10 A2988 RMK AO2 T10581104
KOSC 100436Z AUTO 30013G16KT 10SM OVC028 M06/M10 A2988 RMK AO2 T10601105
KOSC 100415Z AUTO 30007KT 10SM BKN028 M07/M10 A2988 RMK AO2 T10731102
KOSC 100355Z AUTO 27003KT 10SM CLR M08/M11 A2987 RMK AO2 T10821109
KOSC 100335Z AUTO 27004KT 10SM CLR M08/M11 A2987 RMK AO2 T10781106
KOSC 100315Z AUTO 30005KT 10SM CLR M07/M10 A2988 RMK AO2 T10721101
KOSC 100255Z AUTO 30005KT 10SM CLR M07/M10 A2987 RMK AO2 T10701098
KOSC 100235Z AUTO 30006KT 10SM CLR M06/M09 A2987 RMK AO2 T10631095
KOSC 100215Z AUTO 31006KT 10SM SCT034 M06/M09 A2987 RMK AO2 T10571091
KOSC 100155Z AUTO 32008KT 10SM SCT024 M05/M09 A2987 RMK AO2 T10511090
KOSC 100135Z AUTO 32007KT 10SM SCT018 BKN025 BKN030 M04/M08 A2987 RMK AO2 T10431079
KOSC 100115Z AUTO 33007KT 10SM SCT018 OVC030 M04/M07 A2986 RMK AO2 T10441074
KOSC 100055Z AUTO 33005KT 10SM SCT018 BKN030 M04/M07 A2986 RMK AO2 T10431072
KOSC 100036Z AUTO 34007KT 10SM SCT030 SCT060 SCT075 M04/M07 A2985 RMK AO2 T10431075
KOSC 100015Z AUTO 35008KT 10SM OVC032 M04/M07 A2985 RMK AO2 T10371073
KOSC 092355Z AUTO 33009KT 10SM SCT034 BKN046 OVC070 M04/M07 A2985 RMK AO2 T10361071 11005 21036
KOSC 092336Z AUTO 33008KT 10SM OVC046 M03/M07 A2984 RMK AO2 T10351070
KOSC 092315Z AUTO 33007KT 10SM OVC042 M03/M07 A2983 RMK AO2 T10331068
KOSC 092255Z AUTO 34010G17KT 10SM OVC040 M03/M06 A2983 RMK AO2 T10321065
KOSC 092235Z AUTO 34011G15KT 10SM SCT013 OVC038 M03/M06 A2982 RMK AO2 T10301065
KOSC 092215Z AUTO 36009G15KT 10SM BKN015 BKN022 OVC042 M03/M06 A2981 RMK AO2 T10261060
KOSC 092155Z AUTO 35008G17KT 10SM SCT017 SCT030 OVC040 M02/M06 A2980 RMK AO2 T10251058
KOSC 092135Z AUTO 36011G19KT 7SM -SN BKN015 BKN024 OVC036 M02/M06 A2979 RMK AO2 T10221056
KOSC 092115Z AUTO 35013G22KT 10SM OVC014 M02/M05 A2978 RMK AO2 T10211054
KOSC 092055Z AUTO 33013G18KT 4SM -SN BKN014 OVC022 M02/M05 A2976 RMK AO2 T10181050
KOSC 092035Z AUTO 30011G16KT 3SM -SN SCT023 BKN030 OVC042 M02/M05 A2975 RMK AO2 T10171051
KOSC 092015Z AUTO 32013KT 10SM -SN OVC043 M01/M06 A2975 RMK AO2 T10101060
KOSC 091955Z AUTO 32007KT 10SM SCT036 OVC045 M01/M07 A2974 RMK AO2 T10071071
KOSC 091935Z AUTO 32012KT 10SM OVC035 M01/M07 A2974 RMK AO2 T10111068
KOSC 091915Z AUTO 31007KT 10SM BKN024 OVC031 M01/M06 A2973 RMK AO2 T10151061
KOSC 091855Z AUTO 31007KT 10SM OVC022 M02/M06 A2973 RMK AO2 T10161058
KOSC 091835Z AUTO 32005KT 10SM OVC020 M02/M06 A2973 RMK AO2 T10161056
KOSC 091815Z AUTO 32006KT 10SM OVC020 M02/M05 A2973 RMK AO2 T10171052
KOSC 091755Z AUTO 31004KT 10SM OVC020 M02/M05 A2973 RMK AO2 T10201050 11020 21052
KOSC 091735Z AUTO 32005KT 10SM OVC018 M02/M05 A2973 RMK AO2 T10231048
KOSC 091715Z AUTO 29004KT 10SM -SN OVC018 M02/M05 A2973 RMK AO2 T10251050
KOSC 091655Z AUTO 00000KT 10SM OVC016 M03/M05 A2973 RMK AO2 T10271050
KOSC 091635Z AUTO 29003KT 10SM OVC014 M03/M05 A2974 RMK AO2 T10291052
KOSC 091615Z AUTO 30004KT 10SM OVC012 M03/M05 A2975 RMK AO2 T10311052